VLSK

Savannakhet Airport

Lao People’s Democratic Republic
TAF VLSK 230500Z 2306/2406 22004KT 7000 FEW020 FEW100 TEMPO 2314/2320 3000 BR FEW020 FEW100
Issued Valid From Valid To
Apr-23 @ 05:00 UTC
(5 hours ago)
Apr-23 @ 06:00 UTC
(4 hours ago)
Apr-24 @ 06:00 UTC
(in 20 hours)
Apr-23 @ 06:00 to Apr-24 @ 06:00
TAF VLSK 230500Z 2306/2406 22004KT 7000 FEW020 FEW100
Wind Visibility Clouds
220° at 4 knots 7,001 meters
  • Few at 2,000' AGL
  • Few at 10,000' AGL
Temporary Apr-23 @ 14:00 to Apr-23 @ 20:00
TEMPO 2314/2320 3000 BR FEW020 FEW100
Visibility Clouds Conditions
2,993 meters
  • Few at 2,000' AGL
  • Few at 10,000' AGL
  • Mist
TAF VLSK 230500Z 2306/2406 22004KT 7000 FEW020 FEW100 TEMPO 2314/2320 3000 BR FEW020 FEW100
Issued Apr-23 @ 05:00 UTC
(5 hours ago)
Valid From Apr-23 @ 06:00 UTC
(4 hours ago)
Valid To Apr-24 @ 06:00 UTC
(in 20 hours)
Apr-23 @ 06:00 - Apr-24 @ 06:00
Wind Visibility
220° at 4 knots 7,001 meters
Clouds
  • Few at 2,000' AGL
  • Few at 10,000' AGL
Temporary Apr-23 @ 14:00 - Apr-23 @ 20:00
Clouds
  • Few at 2,000' AGL
  • Few at 10,000' AGL
Conditions
  • Mist